createdAt,value
2023-03-23T16:00:30.411Z,8.90
2023-03-23T16:03:57.740Z,7.55
2023-03-23T16:07:01.787Z,11.70
2023-03-23T16:10:06.984Z,14.05
2023-03-23T16:13:10.427Z,15.43
2023-03-23T16:16:23.864Z,14.47
2023-03-23T16:19:27.720Z,21.83
2023-03-23T16:22:31.156Z,19.77
2023-03-23T16:25:34.565Z,23.80
2023-03-23T16:28:37.987Z,39.17
2023-03-23T16:31:41.490Z,24.73
2023-03-23T16:34:45.001Z,26.88
2023-03-23T16:38:07.102Z,24.80
2023-03-23T16:41:10.994Z,23.35
2023-03-23T16:44:14.554Z,28.20
2023-03-23T16:47:25.661Z,15.93
2023-03-23T16:50:31.738Z,15.95
2023-03-23T16:53:36.150Z,15.13
2023-03-23T16:56:39.713Z,23.77
2023-03-23T16:59:43.446Z,36.13
2023-03-23T17:02:48.779Z,35.67
2023-03-23T17:05:52.799Z,38.40
2023-03-23T17:08:56.254Z,87.50
2023-03-23T17:11:59.858Z,50.13
2023-03-23T17:15:03.834Z,48.13
2023-03-23T17:18:08.019Z,54.10
2023-03-23T17:21:11.444Z,53.05
2023-03-23T17:24:14.785Z,67.45
2023-03-23T17:27:20.126Z,42.78
2023-03-23T17:30:23.840Z,31.38
2023-03-23T17:33:27.297Z,19.93
2023-03-23T17:36:31.294Z,22.85
2023-03-23T17:39:42.312Z,18.38
2023-03-23T17:42:47.239Z,23.80
2023-03-23T17:45:51.207Z,27.70
2023-03-23T17:48:54.934Z,37.17
2023-03-23T17:51:59.667Z,42.30
2023-03-23T17:55:03.827Z,53.15
2023-03-23T17:58:07.274Z,58.58
2023-03-23T18:01:11.304Z,57.20
2023-03-23T18:04:15.186Z,53.40
2023-03-23T18:07:23.496Z,53.20
2023-03-23T18:10:27.149Z,57.05
2023-03-23T18:13:33.554Z,64.93
2023-03-23T18:16:37.222Z,35.67
2023-03-23T18:19:41.457Z,14.40
2023-03-23T18:22:45.429Z,10.10
2023-03-23T18:25:53.701Z,54.42
2023-03-23T18:28:57.615Z,43.33
2023-03-23T18:32:01.796Z,23.60
2023-03-23T18:35:06.941Z,23.07
2023-03-23T18:38:11.058Z,15.73
2023-03-23T18:41:15.797Z,14.32
2023-03-23T18:44:19.699Z,11.73
2023-03-23T18:47:23.452Z,15.43
2023-03-23T18:50:27.194Z,17.53
2023-03-23T18:53:31.950Z,25.35
2023-03-23T18:56:35.588Z,62.05
2023-03-23T18:59:39.051Z,63.67
2023-03-23T19:02:42.939Z,39.75
2023-03-23T19:05:47.614Z,41.63
2023-03-23T19:08:52.488Z,42.85
2023-03-23T19:11:56.568Z,35.65
2023-03-23T19:15:00.357Z,35.05
2023-03-23T19:18:03.863Z,33.08
2023-03-23T19:21:14.963Z,31.07
2023-03-23T19:24:21.698Z,30.70
2023-03-23T19:27:26.398Z,30.90
2023-03-23T19:30:30.135Z,41.35
2023-03-23T19:33:33.915Z,44.92
2023-03-23T19:36:38.131Z,38.80
2023-03-23T19:39:43.002Z,36.55
2023-03-23T19:42:47.026Z,63.33
2023-03-23T19:45:51.206Z,37.28
2023-03-23T19:48:56.518Z,40.55
2023-03-23T19:52:09.117Z,52.00
2023-03-23T19:55:15.421Z,34.38
2023-03-23T19:58:19.838Z,29.55
2023-03-23T20:01:24.332Z,30.20
2023-03-23T20:04:28.208Z,39.40
2023-03-23T20:07:31.972Z,59.37
2023-03-23T20:10:37.170Z,52.20
2023-03-23T20:13:41.929Z,35.28
2023-03-23T20:16:45.860Z,33.17
2023-03-23T20:19:49.566Z,39.45
2023-03-23T20:22:55.242Z,34.93
2023-03-23T20:26:04.345Z,31.27
2023-03-23T20:29:09.049Z,22.60
2023-03-23T20:32:13.161Z,24.10
2023-03-23T20:35:16.894Z,29.33
2023-03-23T20:38:20.763Z,38.50
2023-03-23T20:41:24.424Z,45.05
2023-03-23T20:44:31.230Z,47.15
2023-03-23T20:47:34.876Z,51.20
2023-03-23T20:50:38.539Z,51.53
2023-03-23T20:53:42.309Z,42.90
2023-03-23T20:56:47.139Z,37.35
2023-03-23T20:59:52.437Z,26.80
2023-03-23T21:02:57.420Z,25.75
2023-03-23T21:06:03.358Z,20.00
2023-03-23T21:09:06.965Z,20.63
2023-03-23T21:12:11.561Z,20.13
2023-03-23T21:15:15.635Z,22.10
2023-03-23T21:18:19.262Z,22.17
2023-03-23T21:21:23.363Z,18.85
2023-03-23T21:24:28.623Z,20.60
2023-03-23T21:27:32.338Z,20.10
2023-03-23T21:30:35.775Z,17.52
2023-03-23T21:33:39.476Z,18.90
2023-03-23T21:36:43.095Z,23.00
2023-03-23T21:39:46.752Z,19.30
2023-03-23T21:42:51.196Z,16.25
2023-03-23T21:46:02.911Z,15.98
2023-03-23T21:49:10.167Z,16.17
2023-03-23T21:52:13.587Z,16.20
2023-03-23T21:55:17.240Z,18.93
2023-03-23T21:58:23.415Z,16.70
2023-03-23T22:01:28.548Z,17.48
2023-03-23T22:04:32.367Z,16.38
2023-03-23T22:07:39.276Z,16.13
2023-03-23T22:11:00.813Z,12.87
2023-03-23T22:14:06.961Z,13.20
2023-03-23T22:17:10.615Z,15.75
2023-03-23T22:20:14.786Z,18.77
2023-03-23T22:23:18.345Z,21.42
2023-03-23T22:26:22.077Z,25.97
2023-03-23T22:29:25.705Z,17.95
2023-03-23T22:32:29.308Z,17.08
2023-03-23T22:35:33.842Z,21.38
2023-03-23T22:38:39.458Z,21.20
2023-03-23T22:41:43.650Z,20.13
2023-03-23T22:44:47.073Z,31.67
2023-03-23T22:47:51.149Z,28.17
2023-03-23T22:50:55.339Z,24.23
2023-03-23T22:53:59.001Z,20.77
2023-03-23T22:57:02.561Z,22.97
2023-03-23T23:00:14.813Z,27.88
2023-03-23T23:03:18.854Z,36.15
2023-03-23T23:06:22.837Z,34.83
2023-03-23T23:09:27.530Z,17.98
2023-03-23T23:12:35.310Z,17.13
2023-03-23T23:15:43.606Z,25.85
2023-03-23T23:18:48.403Z,23.58
2023-03-23T23:21:51.876Z,34.40
2023-03-23T23:24:55.457Z,32.75
2023-03-23T23:28:00.786Z,27.93
2023-03-23T23:31:06.408Z,25.27
2023-03-23T23:34:13.538Z,17.52
2023-03-23T23:37:16.967Z,19.38
2023-03-23T23:40:20.716Z,16.55
2023-03-23T23:43:24.183Z,18.13
2023-03-23T23:46:30.574Z,16.77
2023-03-23T23:49:34.403Z,17.20
2023-03-23T23:52:39.208Z,11.88
2023-03-23T23:55:43.593Z,10.48
2023-03-23T23:58:48.667Z,12.27
